Time;durP1;ratioP1;P1;durP2;ratioP2;P2;SDS_P1;SDS_P2;PMS_P1;PMS_P2;Temp;Humidity;BMP_temperature;BMP_pressure;BME280_temperature;BME280_humidity;BME280_pressure;Samples;Min_cycle;Max_cycle;Signal;HPM_P1;HPM_P2
2021/06/12 00:00:16;;;;;;;6.03;3.62;;;;;;;17.24;91.82;100547.46;1658914;84;20997;-89
2021/06/12 00:02:42;;;;;;;6.28;3.60;;;;;;;17.28;91.46;100548.98;1658999;84;20958;-87
2021/06/12 00:05:09;;;;;;;5.25;3.37;;;;;;;17.31;91.18;100547.42;1661152;84;21072;-86
2021/06/12 00:07:36;;;;;;;4.80;3.58;;;;;;;17.33;90.94;100552.25;1660287;84;20976;-88
2021/06/12 00:10:10;;;;;;;4.78;3.47;;;;;;;17.32;90.80;100545.09;1665295;84;20990;-88
2021/06/12 00:12:38;;;;;;;4.95;3.70;;;;;;;17.30;90.78;100551.11;1630687;85;21099;-89
2021/06/12 00:15:08;;;;;;;6.85;3.80;;;;;;;17.29;90.77;100549.37;1633582;85;21109;-88
2021/06/12 00:17:35;;;;;;;9.45;3.75;;;;;;;17.29;90.80;100542.59;1635260;86;21573;-87
2021/06/12 00:20:04;;;;;;;10.00;4.08;;;;;;;17.27;90.79;100547.25;1631404;86;21091;-87
2021/06/12 00:22:31;;;;;;;5.40;3.58;;;;;;;17.25;90.89;100539.71;1664495;84;21110;-87
2021/06/12 00:24:57;;;;;;;6.42;3.75;;;;;;;17.23;90.95;100545.22;1655416;84;21612;-87
2021/06/12 00:27:24;;;;;;;8.35;4.28;;;;;;;17.23;90.95;100547.08;1663570;84;21060;-89
2021/06/12 00:29:52;;;;;;;8.18;4.05;;;;;;;17.21;90.94;100540.39;1655720;85;21063;-87
2021/06/12 00:32:18;;;;;;;7.58;3.77;;;;;;;17.20;90.92;100540.01;1632446;86;21656;-85
2021/06/12 00:34:45;;;;;;;9.73;3.98;;;;;;;17.20;90.89;100545.42;1608795;87;21196;-84
2021/06/12 00:37:12;;;;;;;6.87;3.42;;;;;;;17.20;90.84;100535.95;1636508;86;21497;-87
2021/06/12 00:39:39;;;;;;;4.53;3.65;;;;;;;17.21;90.88;100539.54;1600507;88;21061;-87
2021/06/12 00:42:06;;;;;;;9.25;3.55;;;;;;;17.21;90.72;100546.31;1629537;86;21235;-87
2021/06/12 00:44:33;;;;;;;8.18;3.70;;;;;;;17.22;90.44;100550.76;1633323;86;21448;-87
2021/06/12 00:47:01;;;;;;;9.80;3.85;;;;;;;17.23;90.17;100543.02;1626577;86;21701;-88
2021/06/12 00:49:28;;;;;;;6.60;3.42;;;;;;;17.25;89.83;100542.42;1663160;85;21061;-88
2021/06/12 00:51:55;;;;;;;4.92;3.45;;;;;;;17.27;89.49;100548.61;1662398;84;21459;-87
2021/06/12 00:54:21;;;;;;;8.98;3.42;;;;;;;17.29;89.21;100552.08;1662188;84;21155;-88
2021/06/12 00:56:48;;;;;;;6.58;3.22;;;;;;;17.30;88.86;100549.75;1660514;84;21569;-87
2021/06/12 00:59:15;;;;;;;4.62;3.12;;;;;;;17.28;88.70;100543.56;1658874;84;21189;-88
2021/06/12 01:01:42;;;;;;;4.05;3.22;;;;;;;17.26;88.49;100538.73;1657869;86;21001;-88
2021/06/12 01:04:09;;;;;;;6.33;3.08;;;;;;;17.22;88.52;100538.06;1635027;86;20998;-88
2021/06/12 01:06:35;;;;;;;7.12;3.95;;;;;;;17.18;88.55;100536.06;1663768;84;21593;-88
2021/06/12 01:09:02;;;;;;;10.72;3.52;;;;;;;17.14;88.80;100533.19;1659446;85;21535;-88
2021/06/12 01:11:29;;;;;;;7.53;4.30;;;;;;;17.11;89.00;100532.51;1659648;84;21637;-88
2021/06/12 01:14:12;;;;;;;9.35;3.85;;;;;;;17.06;89.31;100535.52;1641470;85;21648;-87
2021/06/12 01:17:23;;;;;;;5.78;3.72;;;;;;;17.02;89.51;100540.28;1627065;86;24610;-87
2021/06/12 01:20:23;;;;;;;7.28;3.98;;;;;;;17.00;89.90;100536.77;1630540;86;20969;-88
2021/06/12 01:23:16;;;;;;;6.20;3.90;;;;;;;16.94;90.18;100540.36;1632871;86;21579;-88
2021/06/12 01:26:28;;;;;;;7.25;3.65;;;;;;;16.88;90.35;100541.13;1665819;84;21473;-86
2021/06/12 01:29:23;;;;;;;6.25;4.10;;;;;;;16.83;90.67;100543.27;1634926;85;21071;-86
2021/06/12 01:31:50;;;;;;;5.80;4.00;;;;;;;16.79;90.64;100539.02;1667921;84;20977;-86
2021/06/12 01:34:18;;;;;;;11.00;3.72;;;;;;;16.78;90.63;100539.99;1661548;85;21502;-87
2021/06/12 01:36:46;;;;;;;5.78;3.60;;;;;;;16.79;90.50;100541.73;1659704;84;21061;-87
2021/06/12 01:39:20;;;;;;;5.30;3.33;;;;;;;16.78;90.39;100534.58;1644976;85;22071;-87
2021/06/12 01:41:45;;;;;;;6.80;3.02;;;;;;;16.78;90.22;100535.94;1670178;84;21107;-87
2021/06/12 01:44:12;;;;;;;5.83;2.75;;;;;;;16.77;89.97;100535.55;1640511;86;21222;-88
2021/06/12 01:46:39;;;;;;;6.53;3.25;;;;;;;16.73;89.93;100532.16;1658561;84;21573;-87
2021/06/12 01:49:05;;;;;;;5.40;3.15;;;;;;;16.73;90.05;100534.02;1640135;85;21131;-88
2021/06/12 01:51:32;;;;;;;5.70;3.45;;;;;;;16.71;90.31;100535.95;1658647;86;21071;-87
2021/06/12 01:53:59;;;;;;;3.72;3.02;;;;;;;16.68;90.35;100536.13;1659358;84;20933;-87
2021/06/12 01:56:26;;;;;;;6.75;3.05;;;;;;;16.64;90.46;100533.23;1667753;84;21108;-86
2021/06/12 01:58:53;;;;;;;3.12;2.45;;;;;;;16.58;90.44;100534.02;1660227;86;21061;-87
2021/06/12 02:01:21;;;;;;;6.10;2.55;;;;;;;16.55;90.31;100534.69;1665552;84;21144;-86
2021/06/12 02:03:48;;;;;;;3.02;2.55;;;;;;;16.56;90.11;100538.66;1669000;84;21152;-87
2021/06/12 02:06:16;;;;;;;6.03;2.90;;;;;;;16.61;89.81;100535.17;1661758;84;22011;-87
2021/06/12 02:08:46;;;;;;;4.83;2.90;;;;;;;16.67;89.37;100542.50;1659160;84;20895;-86
2021/06/12 02:11:16;;;;;;;4.33;2.70;;;;;;;16.74;89.14;100545.23;1664168;84;21052;-86
2021/06/12 02:13:42;;;;;;;4.22;3.00;;;;;;;16.82;88.79;100551.51;1661579;84;21116;-87
2021/06/12 02:16:09;;;;;;;4.30;2.70;;;;;;;16.87;88.38;100549.36;1673463;83;21784;-88
2021/06/12 02:18:37;;;;;;;7.90;2.98;;;;;;;16.95;88.00;100552.93;1635979;83;20933;-87
2021/06/12 02:21:04;;;;;;;8.80;3.55;;;;;;;17.06;87.74;100557.17;1658017;83;20914;-87
2021/06/12 02:23:31;;;;;;;7.22;3.27;;;;;;;17.21;87.28;100557.15;1684265;83;21004;-87
2021/06/12 02:25:58;;;;;;;8.18;3.08;;;;;;;17.37;86.61;100555.16;1692152;83;21597;-87
2021/06/12 02:28:34;;;;;;;3.58;2.90;;;;;;;17.57;85.80;100559.70;1657198;83;21106;-87
2021/06/12 02:31:06;;;;;;;4.05;2.45;;;;;;;17.72;85.00;100561.88;1674360;83;21060;-87
2021/06/12 02:33:34;;;;;;;4.62;2.60;;;;;;;17.88;84.03;100556.27;1689293;83;20997;-87
2021/06/12 02:36:02;;;;;;;5.03;2.77;;;;;;;18.03;83.00;100559.79;1650822;83;21344;-88
2021/06/12 02:38:29;;;;;;;4.28;2.67;;;;;;;18.14;82.35;100562.63;1683319;83;21155;-88
2021/06/12 02:40:57;;;;;;;3.90;2.67;;;;;;;18.22;82.00;100562.58;1685050;83;21540;-88
2021/06/12 02:43:25;;;;;;;4.67;3.27;;;;;;;18.25;81.75;100561.88;1663607;83;21536;-88
2021/06/12 02:45:53;;;;;;;6.50;2.90;;;;;;;18.28;81.46;100564.38;1679911;83;21503;-87
2021/06/12 02:48:20;;;;;;;11.10;3.55;;;;;;;18.31;81.28;100564.15;1691618;83;21012;-87
2021/06/12 02:50:47;;;;;;;9.33;3.98;;;;;;;18.32;81.28;100571.78;1684295;83;21155;-87
2021/06/12 02:53:15;;;;;;;9.60;3.92;;;;;;;18.31;81.35;100568.22;1682779;83;21123;-87
2021/06/12 02:55:48;;;;;;;9.63;4.28;;;;;;;18.29;81.52;100572.89;1681465;83;21872;-87
2021/06/12 02:58:15;;;;;;;6.62;3.98;;;;;;;18.28;81.72;100575.70;1688384;83;20981;-86
2021/06/12 03:00:42;;;;;;;9.75;4.45;;;;;;;18.30;81.74;100578.70;1685506;82;21224;-87
2021/06/12 03:03:12;;;;;;;6.87;4.35;;;;;;;18.32;81.72;100580.81;1665325;83;21170;-87
2021/06/12 03:05:43;;;;;;;5.67;3.72;;;;;;;18.32;81.73;100582.16;1667955;83;21116;-85
2021/06/12 03:08:12;;;;;;;8.53;3.80;;;;;;;18.33;81.97;100573.52;1685265;83;21562;-87
2021/06/12 03:10:39;;;;;;;6.22;4.08;;;;;;;18.38;82.09;100582.70;1685720;83;21107;-85
2021/06/12 03:13:10;;;;;;;5.80;4.17;;;;;;;18.44;82.11;100591.28;1633834;83;21064;-85
2021/06/12 03:15:37;;;;;;;6.15;4.50;;;;;;;18.50;82.00;100579.13;1678736;83;21581;-85
2021/06/12 03:18:04;;;;;;;6.67;4.35;;;;;;;18.56;82.00;100591.38;1653848;84;21140;-85
2021/06/12 03:20:31;;;;;;;11.97;4.70;;;;;;;18.61;81.96;100589.22;1615505;86;21646;-85
2021/06/12 03:23:01;;;;;;;9.35;5.35;;;;;;;18.67;81.93;100585.17;1620742;85;21519;-85
2021/06/12 03:25:25;;;;;;;8.83;5.15;;;;;;;18.73;81.72;100592.91;1619111;86;21452;-85
2021/06/12 03:27:52;;;;;;;7.53;5.00;;;;;;;18.80;81.49;100594.19;1587151;88;22006;-88
2021/06/12 03:30:20;;;;;;;8.00;4.65;;;;;;;18.83;81.28;100592.59;1668250;84;20914;-87
2021/06/12 03:32:47;;;;;;;11.90;4.95;;;;;;;18.88;81.20;100598.56;1660134;84;21061;-88
2021/06/12 03:35:14;;;;;;;6.95;3.98;;;;;;;18.90;81.05;100597.98;1640869;84;21437;-85
2021/06/12 03:37:40;;;;;;;6.00;4.37;;;;;;;18.94;80.85;100597.76;1662285;81;21204;-85
2021/06/12 03:40:09;;;;;;;4.22;3.60;;;;;;;18.99;80.58;100595.59;1667380;84;21071;-88
2021/06/12 03:42:37;;;;;;;8.08;4.08;;;;;;;19.08;80.30;100599.49;1659338;84;21113;-88
2021/06/12 03:45:08;;;;;;;7.47;3.85;;;;;;;19.16;79.77;100600.66;1653890;84;21124;-89
2021/06/12 03:47:35;;;;;;;5.55;3.98;;;;;;;19.26;79.22;100598.14;1662879;85;21757;-88
2021/06/12 03:50:03;;;;;;;6.20;4.12;;;;;;;19.36;78.84;100602.40;1631881;86;21485;-88
2021/06/12 03:52:29;;;;;;;9.90;3.90;;;;;;;19.45;78.30;100605.77;1663158;84;20992;-88
2021/06/12 03:54:56;;;;;;;6.05;3.33;;;;;;;19.57;77.72;100603.98;1653476;84;21833;-88
2021/06/12 03:57:24;;;;;;;5.85;2.92;;;;;;;19.70;77.07;100606.63;1654245;85;21175;-88
2021/06/12 03:59:52;;;;;;;6.08;3.62;;;;;;;19.85;76.36;100612.75;1664090;84;21103;-88
2021/06/12 04:02:19;;;;;;;5.95;3.50;;;;;;;19.96;75.72;100617.40;1646674;84;21850;-88
2021/06/12 04:04:48;;;;;;;6.20;3.70;;;;;;;20.09;75.21;100628.20;1655027;84;21478;-88
2021/06/12 04:07:17;;;;;;;6.45;3.58;;;;;;;20.19;74.85;100624.27;1665681;84;21124;-87
2021/06/12 04:09:44;;;;;;;6.35;3.47;;;;;;;20.28;74.25;100624.94;1652329;82;21496;-88
2021/06/12 04:12:14;;;;;;;6.03;3.30;;;;;;;20.39;73.89;100615.92;1643560;84;21187;-86
2021/06/12 04:14:40;;;;;;;6.55;3.65;;;;;;;20.50;73.58;100619.64;1649075;84;21331;-87
2021/06/12 04:17:08;;;;;;;7.78;3.77;;;;;;;20.63;73.52;100614.08;1657551;84;21006;-87
2021/06/12 04:19:40;;;;;;;6.42;3.75;;;;;;;20.78;73.17;100622.88;1662646;84;21088;-87
2021/06/12 04:22:07;;;;;;;8.70;4.03;;;;;;;20.86;72.93;100618.58;1662655;84;21013;-87
2021/06/12 04:24:34;;;;;;;9.15;4.03;;;;;;;20.95;72.89;100617.48;1655360;86;21080;-87
2021/06/12 04:27:02;;;;;;;7.17;4.00;;;;;;;21.01;72.83;100619.69;1666499;84;20977;-87
2021/06/12 04:29:30;;;;;;;9.20;4.03;;;;;;;21.10;72.79;100617.56;1650913;84;21052;-88
2021/06/12 04:31:56;;;;;;;8.10;3.92;;;;;;;21.22;72.58;100625.74;1665311;84;21443;-87
2021/06/12 04:34:23;;;;;;;6.95;4.33;;;;;;;21.31;72.25;100624.97;1654798;84;21112;-87
2021/06/12 04:36:51;;;;;;;5.60;4.00;;;;;;;21.40;71.87;100623.34;1659233;84;21060;-87
2021/06/12 04:39:18;;;;;;;7.80;4.22;;;;;;;21.49;71.49;100614.41;1661463;84;20907;-87
2021/06/12 04:41:45;;;;;;;8.50;4.37;;;;;;;21.58;71.15;100623.69;1658888;84;20981;-87
2021/06/12 04:44:13;;;;;;;8.48;5.00;;;;;;;21.67;71.03;100624.81;1659191;84;21089;-85
2021/06/12 04:46:42;;;;;;;12.10;4.80;;;;;;;21.75;70.76;100629.95;1668056;84;21036;-84
2021/06/12 04:49:09;;;;;;;10.50;3.77;;;;;;;21.82;70.38;100624.86;1657278;84;21041;-84
2021/06/12 04:51:36;;;;;;;5.28;4.05;;;;;;;21.89;70.16;100630.66;1653446;86;21079;-84
2021/06/12 04:54:02;;;;;;;6.80;4.03;;;;;;;21.99;69.91;100630.75;1657189;84;20953;-84
2021/06/12 04:56:29;;;;;;;5.83;4.03;;;;;;;22.09;69.84;100628.09;1655160;84;21098;-84
2021/06/12 04:58:56;;;;;;;7.42;3.80;;;;;;;22.20;69.72;100630.75;1654385;84;21087;-85
2021/06/12 05:01:23;;;;;;;8.03;3.95;;;;;;;22.35;69.57;100635.89;1662449;84;21625;-85
2021/06/12 05:03:49;;;;;;;5.72;3.80;;;;;;;22.46;68.77;100642.17;1663771;84;21025;-85
2021/06/12 05:06:16;;;;;;;6.05;4.20;;;;;;;22.55;68.15;100643.24;1663322;84;21095;-85
2021/06/12 05:08:43;;;;;;;9.95;4.30;;;;;;;22.63;67.75;100637.11;1662789;84;22116;-84
2021/06/12 05:11:09;;;;;;;7.47;4.40;;;;;;;22.71;67.41;100640.53;1655090;84;21041;-85
2021/06/12 05:13:36;;;;;;;11.97;3.98;;;;;;;22.78;67.32;100638.13;1657309;84;21064;-84
2021/06/12 05:16:04;;;;;;;6.28;4.22;;;;;;;22.85;67.24;100645.62;1655212;84;21962;-85
2021/06/12 05:18:44;;;;;;;9.25;4.33;;;;;;;22.93;67.17;100639.47;1658497;84;21071;-84
2021/06/12 05:21:15;;;;;;;12.10;4.42;;;;;;;23.03;66.26;100636.78;1639792;86;21121;-85
2021/06/12 05:23:42;;;;;;;6.55;4.42;;;;;;;23.13;66.18;100638.18;1655836;84;22728;-84
2021/06/12 05:26:08;;;;;;;7.70;4.35;;;;;;;23.23;65.75;100636.84;1661261;84;21002;-85
2021/06/12 05:28:35;;;;;;;7.65;4.15;;;;;;;23.32;65.66;100638.27;1654975;84;21012;-85
2021/06/12 05:31:02;;;;;;;7.05;3.90;;;;;;;23.43;65.49;100638.66;1660117;84;20997;-85
2021/06/12 05:33:33;;;;;;;12.25;4.00;;;;;;;23.58;64.86;100641.00;1661009;84;21124;-85
2021/06/12 05:36:00;;;;;;;6.08;3.85;;;;;;;23.72;64.14;100640.56;1665131;84;21001;-86
2021/06/12 05:38:26;;;;;;;5.37;4.12;;;;;;;23.84;63.86;100650.03;1658875;85;21172;-84
2021/06/12 05:40:54;;;;;;;7.20;3.90;;;;;;;23.90;63.31;100653.55;1657556;84;20973;-84
2021/06/12 05:43:22;;;;;;;6.87;4.20;;;;;;;24.01;62.96;100655.28;1655581;84;21091;-86
2021/06/12 05:45:49;;;;;;;11.03;4.10;;;;;;;24.09;62.36;100660.08;1658952;84;21584;-84
2021/06/12 05:48:15;;;;;;;9.05;4.00;;;;;;;24.13;61.84;100661.51;1665632;84;21092;-85
2021/06/12 05:50:41;;;;;;;10.08;3.60;;;;;;;24.19;61.87;100658.19;1655083;84;21025;-84
2021/06/12 05:53:09;;;;;;;5.62;3.80;;;;;;;24.27;61.03;100661.56;1637759;85;21052;-85
2021/06/12 05:55:36;;;;;;;10.20;4.15;;;;;;;24.36;61.12;100667.56;1653706;84;21070;-84
2021/06/12 05:58:03;;;;;;;10.03;4.40;;;;;;;24.42;60.74;100671.08;1654884;84;21087;-85
2021/06/12 06:00:30;;;;;;;9.35;3.60;;;;;;;24.51;61.17;100669.82;1655612;84;21774;-84
2021/06/12 06:02:56;;;;;;;5.62;4.00;;;;;;;24.57;60.24;100671.47;1657456;84;21013;-85
2021/06/12 06:05:23;;;;;;;8.10;3.90;;;;;;;24.64;59.70;100673.61;1658403;84;21032;-86
2021/06/12 06:07:51;;;;;;;6.87;4.45;;;;;;;24.70;59.18;100669.78;1656158;84;20974;-85
2021/06/12 06:10:18;;;;;;;9.70;4.08;;;;;;;24.78;58.48;100669.08;1657762;84;21729;-86
2021/06/12 06:12:44;;;;;;;8.20;4.15;;;;;;;24.84;59.03;100671.20;1657993;84;20987;-85
2021/06/12 06:15:13;;;;;;;9.40;3.95;;;;;;;24.90;59.25;100661.53;1663749;84;21474;-84
2021/06/12 06:17:40;;;;;;;9.25;3.90;;;;;;;24.97;59.53;100660.43;1658073;84;21064;-84
2021/06/12 06:20:09;;;;;;;15.03;4.78;;;;;;;25.09;58.75;100663.35;1651440;86;21089;-85
2021/06/12 06:22:35;;;;;;;7.97;4.20;;;;;;;25.14;58.37;100659.64;1641931;85;21061;-85
2021/06/12 06:25:04;;;;;;;11.53;4.28;;;;;;;25.21;58.81;100660.39;1664029;84;21032;-85
2021/06/12 06:27:31;;;;;;;6.03;3.80;;;;;;;25.28;58.99;100658.27;1658440;84;21089;-85
2021/06/12 06:29:57;;;;;;;9.08;4.28;;;;;;;25.36;57.88;100653.39;1659353;84;21366;-84
2021/06/12 06:32:24;;;;;;;8.30;3.83;;;;;;;25.42;57.95;100652.77;1660749;84;21041;-85
2021/06/12 06:34:50;;;;;;;10.03;4.90;;;;;;;25.53;58.11;100657.21;1656753;84;21107;-85
2021/06/12 06:37:17;;;;;;;12.82;4.47;;;;;;;25.63;58.60;100664.01;1667836;84;22473;-84
2021/06/12 06:39:43;;;;;;;8.65;4.12;;;;;;;25.73;58.02;100666.16;1653483;84;21123;-84
2021/06/12 06:42:10;;;;;;;22.37;4.90;;;;;;;25.83;57.21;100670.73;1654970;84;21096;-85
2021/06/12 06:44:37;;;;;;;8.40;3.72;;;;;;;25.88;56.18;100671.13;1653009;84;21140;-85
2021/06/12 06:47:04;;;;;;;16.42;6.17;;;;;;;25.93;55.28;100657.78;1655947;84;21176;-85
2021/06/12 06:49:31;;;;;;;13.95;6.37;;;;;;;26.06;56.67;100666.15;1659341;84;21840;-85
2021/06/12 06:51:57;;;;;;;10.65;5.00;;;;;;;26.15;56.94;100669.31;1662749;84;20986;-84
2021/06/12 06:54:24;;;;;;;9.85;5.47;;;;;;;26.21;56.07;100667.36;1658721;84;21495;-85
2021/06/12 06:56:51;;;;;;;12.00;5.35;;;;;;;26.26;56.35;100666.36;1659161;84;21001;-84
2021/06/12 06:59:18;;;;;;;8.68;5.22;;;;;;;26.41;56.01;100668.52;1652801;84;21561;-84
2021/06/12 07:01:48;;;;;;;9.53;5.20;;;;;;;26.54;55.88;100666.75;1656954;84;21163;-84
2021/06/12 07:04:13;;;;;;;10.65;5.53;;;;;;;26.63;55.79;100669.02;1657286;84;21155;-86
2021/06/12 07:06:40;;;;;;;8.68;5.00;;;;;;;26.71;55.21;100669.09;1662501;84;21280;-86
2021/06/12 07:09:09;;;;;;;10.88;4.60;;;;;;;26.80;54.24;100667.26;1652415;84;20908;-86
2021/06/12 07:11:37;;;;;;;10.00;4.42;;;;;;;26.92;54.86;100670.63;1652260;84;21778;-86
2021/06/12 07:14:04;;;;;;;10.63;4.17;;;;;;;27.00;54.54;100666.03;1652096;84;21439;-84
2021/06/12 07:16:30;;;;;;;6.42;3.58;;;;;;;27.08;53.69;100672.09;1658794;84;21004;-85
2021/06/12 07:18:57;;;;;;;10.08;4.50;;;;;;;27.13;52.05;100671.08;1660829;84;21581;-85
2021/06/12 07:21:24;;;;;;;10.88;4.15;;;;;;;27.16;52.08;100682.25;1661196;84;21061;-86
2021/06/12 07:23:50;;;;;;;4.95;3.60;;;;;;;27.07;51.62;100675.84;1653846;84;21882;-86
2021/06/12 07:26:17;;;;;;;7.40;3.77;;;;;;;27.02;50.27;100679.61;1653642;84;21153;-85
2021/06/12 07:28:43;;;;;;;5.15;3.40;;;;;;;27.03;49.67;100686.83;1650430;84;21845;-85
2021/06/12 07:31:10;;;;;;;3.67;3.10;;;;;;;27.06;49.83;100682.38;1652986;84;21808;-84
2021/06/12 07:33:36;;;;;;;5.92;3.47;;;;;;;27.19;49.37;100668.19;1659303;84;21152;-84
2021/06/12 07:36:03;;;;;;;9.65;3.77;;;;;;;27.34;49.43;100667.04;1657509;84;21545;-85
2021/06/12 07:38:30;;;;;;;6.10;3.33;;;;;;;27.34;48.75;100679.42;1658686;84;21096;-84
2021/06/12 07:40:57;;;;;;;9.35;3.60;;;;;;;27.22;48.13;100671.10;1641398;84;21156;-85
2021/06/12 07:43:26;;;;;;;5.67;3.20;;;;;;;27.10;49.20;100674.17;1663201;84;21024;-85
2021/06/12 07:45:54;;;;;;;3.60;3.25;;;;;;;27.09;49.84;100674.31;1661934;84;21099;-85
2021/06/12 07:48:21;;;;;;;5.20;3.27;;;;;;;26.99;50.20;100678.06;1658128;84;21140;-84
2021/06/12 07:50:49;;;;;;;7.87;3.70;;;;;;;26.88;51.01;100684.71;1652966;84;21005;-84
2021/06/12 07:53:15;;;;;;;7.70;3.17;;;;;;;26.84;50.72;100683.25;1649429;84;21546;-85
2021/06/12 07:55:45;;;;;;;9.25;2.98;;;;;;;26.83;50.93;100676.55;1654631;84;21046;-84
2021/06/12 07:58:13;;;;;;;6.12;3.55;;;;;;;26.87;49.92;100684.36;1642536;84;20965;-85
2021/06/12 08:00:40;;;;;;;7.22;3.27;;;;;;;26.98;49.50;100676.84;1651914;85;21578;-85
2021/06/12 08:03:08;;;;;;;6.35;3.20;;;;;;;27.11;48.79;100674.52;1662430;84;21088;-83
2021/06/12 08:05:35;;;;;;;6.25;3.70;;;;;;;27.19;48.06;100677.82;1660399;84;21584;-84
2021/06/12 08:08:02;;;;;;;9.33;4.83;;;;;;;27.21;52.53;100673.52;1647631;84;21008;-83
2021/06/12 08:10:29;;;;;;;7.80;4.25;;;;;;;27.27;53.76;100671.46;1653668;84;21543;-83
2021/06/12 08:12:55;;;;;;;4.40;3.80;;;;;;;27.28;54.30;100673.19;1655106;84;21425;-84
2021/06/12 08:15:23;;;;;;;8.95;4.35;;;;;;;27.29;54.57;100666.66;1653402;84;21006;-85
2021/06/12 08:17:51;;;;;;;5.42;3.92;;;;;;;27.26;54.98;100671.99;1666360;83;20956;-84
2021/06/12 08:20:18;;;;;;;6.30;4.45;;;;;;;27.15;55.63;100670.40;1689578;81;21057;-85
2021/06/12 08:22:44;;;;;;;6.28;4.40;;;;;;;26.97;55.71;100675.11;1685710;83;21308;-85
2021/06/12 08:25:11;;;;;;;5.12;4.25;;;;;;;26.88;55.91;100681.95;1661413;83;21694;-84
2021/06/12 08:27:38;;;;;;;6.65;4.25;;;;;;;26.84;56.59;100673.63;1684877;83;20948;-85
2021/06/12 08:30:05;;;;;;;8.70;4.25;;;;;;;26.81;57.26;100673.95;1696266;82;21000;-85
2021/06/12 08:32:32;;;;;;;7.95;4.42;;;;;;;26.74;57.40;100675.64;1684869;83;21020;-85
2021/06/12 08:34:58;;;;;;;7.45;4.40;;;;;;;26.68;56.71;100674.92;1688375;83;21104;-84
2021/06/12 08:37:28;;;;;;;5.62;4.20;;;;;;;26.55;56.52;100672.07;1688334;83;21031;-85
2021/06/12 08:39:55;;;;;;;7.08;4.08;;;;;;;26.42;56.49;100674.40;1693546;83;20957;-84
2021/06/12 08:42:25;;;;;;;9.03;3.92;;;;;;;26.35;57.03;100674.66;1691425;83;21063;-84
2021/06/12 08:44:53;;;;;;;9.18;4.42;;;;;;;26.29;57.08;100670.16;1689171;83;21428;-84
2021/06/12 08:47:19;;;;;;;6.15;4.40;;;;;;;26.21;57.34;100667.36;1688256;83;21141;-83
2021/06/12 08:49:46;;;;;;;5.50;3.87;;;;;;;26.15;58.07;100669.31;1682777;84;21588;-83
2021/06/12 08:52:13;;;;;;;7.30;4.22;;;;;;;26.09;57.89;100669.95;1692673;83;21008;-84
2021/06/12 08:54:41;;;;;;;4.85;3.92;;;;;;;26.02;58.22;100665.09;1681462;81;21088;-85
2021/06/12 08:57:09;;;;;;;6.47;3.65;;;;;;;26.01;58.55;100662.00;1686190;83;21454;-85
2021/06/12 08:59:36;;;;;;;7.20;4.08;;;;;;;26.11;58.97;100670.66;1628172;84;20918;-84
2021/06/12 09:02:04;;;;;;;4.83;3.92;;;;;;;26.27;59.17;100674.08;1637706;85;21121;-85
2021/06/12 09:04:34;;;;;;;5.47;3.58;;;;;;;26.43;59.16;100673.38;1692597;83;21044;-85
2021/06/12 09:07:25;;;;;;;6.40;3.80;;;;;;;26.53;58.63;100664.50;1693700;83;20966;-85
2021/06/12 09:09:56;;;;;;;5.67;3.60;;;;;;;26.59;58.27;100663.84;1692869;83;38704;-85
2021/06/12 09:12:23;;;;;;;6.83;3.65;;;;;;;26.65;58.35;100664.25;1632122;86;21328;-85
2021/06/12 09:15:13;;;;;;;5.58;3.72;;;;;;;26.71;58.43;100663.59;1642677;85;22344;-85
2021/06/12 09:17:41;;;;;;;6.42;3.80;;;;;;;26.75;58.21;100667.73;1690565;83;21080;-85
2021/06/12 09:20:09;;;;;;;8.15;3.25;;;;;;;26.79;58.10;100663.63;1660299;83;20987;-86
2021/06/12 09:22:36;;;;;;;6.35;3.40;;;;;;;26.80;58.16;100662.61;1665336;84;20969;-85
2021/06/12 09:25:03;;;;;;;9.13;3.65;;;;;;;26.81;57.63;100662.95;1640427;85;21131;-85
2021/06/12 09:27:30;;;;;;;5.35;3.42;;;;;;;26.79;57.46;100662.78;1661506;84;21904;-85
2021/06/12 09:30:07;;;;;;;4.70;3.87;;;;;;;26.76;57.73;100665.87;1665564;83;21001;-86
2021/06/12 09:32:44;;;;;;;4.97;3.50;;;;;;;26.68;58.65;100655.67;1664327;83;21624;-85
2021/06/12 09:35:16;;;;;;;4.35;3.35;;;;;;;26.54;58.97;100656.60;1662319;83;21835;-85
2021/06/12 09:37:42;;;;;;;5.87;3.47;;;;;;;26.36;59.45;100659.40;1666984;83;20969;-85
2021/06/12 09:40:16;;;;;;;7.92;3.75;;;;;;;26.19;60.09;100651.52;1674781;84;21622;-86
2021/06/12 09:42:50;;;;;;;5.67;3.50;;;;;;;26.05;60.30;100652.06;1662505;83;20933;-87
2021/06/12 09:45:30;;;;;;;8.88;3.92;;;;;;;25.92;60.94;100647.81;1661640;83;20941;-85
2021/06/12 09:48:12;;;;;;;5.80;3.98;;;;;;;25.88;61.73;100646.41;1662551;83;21005;-87
2021/06/12 09:50:43;;;;;;;7.75;3.60;;;;;;;25.92;62.46;100642.33;1660901;84;20969;-87
2021/06/12 09:53:16;;;;;;;6.12;3.20;;;;;;;25.98;62.28;100636.23;1673413;83;21587;-87
2021/06/12 09:55:44;;;;;;;8.97;3.83;;;;;;;26.04;62.11;100634.70;1668031;84;21036;-87
2021/06/12 09:58:11;;;;;;;12.50;3.62;;;;;;;26.07;62.20;100629.42;1668102;84;21075;-87
2021/06/12 10:00:46;;;;;;;4.42;3.50;;;;;;;26.13;62.32;100633.77;1666825;83;20941;-86
2021/06/12 10:03:28;;;;;;;7.37;3.70;;;;;;;26.19;61.71;100634.19;1668424;84;21064;-84
2021/06/12 10:06:14;;;;;;;8.13;3.83;;;;;;;26.17;61.63;100637.08;1661982;84;21128;-86
2021/06/12 10:08:49;;;;;;;10.98;3.52;;;;;;;26.14;61.24;100631.88;1668056;84;20952;-86
2021/06/12 10:11:22;;;;;;;5.78;3.47;;;;;;;26.13;61.33;100637.02;1665117;83;20906;-86
2021/06/12 10:13:49;;;;;;;5.10;3.75;;;;;;;26.17;61.16;100634.33;1663252;83;21142;-86
2021/06/12 10:16:17;;;;;;;6.20;3.65;;;;;;;26.24;60.97;100637.31;1662828;84;20996;-84
2021/06/12 10:18:45;;;;;;;4.35;3.50;;;;;;;26.29;59.88;100634.94;1665841;84;21172;-86
2021/06/12 10:21:13;;;;;;;6.33;3.30;;;;;;;26.31;59.72;100642.53;1634949;84;21171;-86
2021/06/12 10:23:41;;;;;;;7.40;3.17;;;;;;;26.32;59.06;100630.52;1649337;84;21073;-83
2021/06/12 10:26:09;;;;;;;5.80;3.42;;;;;;;26.29;59.12;100633.56;1655065;84;20973;-84
2021/06/12 10:28:36;;;;;;;4.80;2.98;;;;;;;26.26;59.15;100627.02;1656294;83;21115;-84
2021/06/12 10:31:11;;;;;;;7.50;3.27;;;;;;;26.21;59.08;100631.64;1665261;84;21999;-85
2021/06/12 10:33:46;;;;;;;6.25;3.72;;;;;;;26.11;59.87;100622.58;1657150;84;21614;-85
2021/06/12 10:36:26;;;;;;;6.03;3.40;;;;;;;26.03;60.11;100614.63;1657875;85;21141;-86
2021/06/12 10:38:54;;;;;;;6.92;3.20;;;;;;;25.91;59.76;100604.90;1663555;84;21021;-85
2021/06/12 10:41:24;;;;;;;6.90;3.37;;;;;;;25.79;59.74;100618.53;1662777;84;21020;-86
2021/06/12 10:43:54;;;;;;;6.45;3.37;;;;;;;25.70;59.39;100615.69;1653385;84;21117;-86
2021/06/12 10:46:23;;;;;;;9.13;3.35;;;;;;;25.65;59.24;100610.34;1665784;83;20937;-86
2021/06/12 10:48:54;;;;;;;5.12;3.45;;;;;;;25.63;59.77;100600.88;1653937;84;21645;-86
2021/06/12 10:51:33;;;;;;;8.45;2.98;;;;;;;25.66;59.68;100599.71;1640092;85;20998;-86
2021/06/12 10:54:20;;;;;;;3.83;2.72;;;;;;;25.71;59.75;100600.09;1653522;84;21064;-86
2021/06/12 10:57:04;;;;;;;11.43;3.10;;;;;;;25.76;59.42;100603.75;1659632;84;21414;-86
2021/06/12 10:59:45;;;;;;;3.87;3.12;;;;;;;25.72;59.33;100605.94;1653960;84;20957;-87
2021/06/12 11:02:29;;;;;;;5.83;3.10;;;;;;;25.66;59.38;100600.56;1655759;84;20993;-86
2021/06/12 11:05:06;;;;;;;8.08;2.87;;;;;;;25.63;58.49;100594.02;1654982;84;21066;-85
2021/06/12 11:07:38;;;;;;;4.42;2.83;;;;;;;25.59;57.00;100598.09;1662266;83;21016;-87
2021/06/12 11:10:16;;;;;;;3.33;2.80;;;;;;;25.60;56.01;100595.70;1658789;84;22050;-85
2021/06/12 11:12:52;;;;;;;3.70;3.00;;;;;;;25.65;55.86;100591.12;1656379;84;21003;-86
2021/06/12 11:15:30;;;;;;;4.00;2.98;;;;;;;25.70;55.83;100588.23;1664614;84;21185;-86
2021/06/12 11:18:24;;;;;;;12.45;3.20;;;;;;;25.73;55.19;100601.64;1653551;85;21112;-86
2021/06/12 11:21:04;;;;;;;4.45;3.15;;;;;;;25.70;54.88;100592.36;1655586;84;21044;-87
2021/06/12 11:23:54;;;;;;;2.95;2.47;;;;;;;25.66;54.85;100593.70;1656146;84;21574;-87
2021/06/12 11:26:18;;;;;;;5.03;2.92;;;;;;;25.63;55.48;100597.25;1656669;84;21045;-86
2021/06/12 11:28:47;;;;;;;9.88;3.10;;;;;;;25.59;56.21;100589.33;1650040;84;21061;-86
2021/06/12 11:31:33;;;;;;;3.50;2.77;;;;;;;25.58;56.42;100582.64;1656528;84;21174;-87
2021/06/12 11:34:14;;;;;;;4.20;2.90;;;;;;;25.60;55.91;100577.86;1655186;85;21013;-87